sensor_id;sensor_type;location;lat;lon;timestamp;pressure;altitude;pressure_sealevel;temperature;humidity
56671;BME280;42545;50.054;8.306;2022-08-19T00:01:51;99559.66;;;20.61;68.18
56671;BME280;42545;50.054;8.306;2022-08-19T00:04:23;99564.84;;;20.67;67.82
56671;BME280;42545;50.054;8.306;2022-08-19T00:06:51;99574.56;;;20.69;67.88
56671;BME280;42545;50.054;8.306;2022-08-19T00:09:21;99577.19;;;20.71;67.84
56671;BME280;42545;50.054;8.306;2022-08-19T00:11:49;99590.53;;;20.74;67.78
56671;BME280;42545;50.054;8.306;2022-08-19T00:14:17;99584.25;;;20.73;67.84
56671;BME280;42545;50.054;8.306;2022-08-19T00:16:45;99577.13;;;20.74;67.58
56671;BME280;42545;50.054;8.306;2022-08-19T00:19:13;99578.84;;;20.75;67.71
56671;BME280;42545;50.054;8.306;2022-08-19T00:21:40;99572.63;;;20.74;67.55
56671;BME280;42545;50.054;8.306;2022-08-19T00:24:09;99574.47;;;20.72;67.70
56671;BME280;42545;50.054;8.306;2022-08-19T00:26:39;99575.34;;;20.73;68.17
56671;BME280;42545;50.054;8.306;2022-08-19T00:29:11;99575.47;;;20.70;68.25
56671;BME280;42545;50.054;8.306;2022-08-19T00:31:40;99574.56;;;20.69;68.41
56671;BME280;42545;50.054;8.306;2022-08-19T00:34:07;99571.94;;;20.68;68.49
56671;BME280;42545;50.054;8.306;2022-08-19T00:36:34;99564.00;;;20.65;68.38
56671;BME280;42545;50.054;8.306;2022-08-19T00:39:01;99561.38;;;20.63;68.52
56671;BME280;42545;50.054;8.306;2022-08-19T00:41:28;99565.94;;;20.60;68.57
56671;BME280;42545;50.054;8.306;2022-08-19T00:44:02;99555.41;;;20.53;68.61
56671;BME280;42545;50.054;8.306;2022-08-19T00:46:30;99552.78;;;20.52;68.80
56671;BME280;42545;50.054;8.306;2022-08-19T00:48:58;99561.78;;;20.49;68.65
56671;BME280;42545;50.054;8.306;2022-08-19T00:51:27;99559.16;;;20.48;68.98
56671;BME280;42545;50.054;8.306;2022-08-19T00:53:57;99556.53;;;20.46;69.18
56671;BME280;42545;50.054;8.306;2022-08-19T00:56:26;99552.13;;;20.44;69.22
56671;BME280;42545;50.054;8.306;2022-08-19T00:58:54;99537.09;;;20.40;69.35
56671;BME280;42545;50.054;8.306;2022-08-19T01:01:23;99538.94;;;20.38;69.31
56671;BME280;42545;50.054;8.306;2022-08-19T01:03:50;99525.63;;;20.34;69.31
56671;BME280;42545;50.054;8.306;2022-08-19T01:06:17;99531.00;;;20.34;69.37
56671;BME280;42545;50.054;8.306;2022-08-19T01:08:44;99514.09;;;20.32;69.51
56671;BME280;42545;50.054;8.306;2022-08-19T01:11:11;99513.28;;;20.30;69.66
56671;BME280;42545;50.054;8.306;2022-08-19T01:13:38;99507.88;;;20.32;69.72
56671;BME280;42545;50.054;8.306;2022-08-19T01:16:08;99517.59;;;20.34;69.62
56671;BME280;42545;50.054;8.306;2022-08-19T01:18:40;99515.78;;;20.35;69.68
56671;BME280;42545;50.054;8.306;2022-08-19T01:21:12;99522.91;;;20.36;69.51
56671;BME280;42545;50.054;8.306;2022-08-19T01:23:44;99513.03;;;20.38;69.32
56671;BME280;42545;50.054;8.306;2022-08-19T01:26:14;99513.75;;;20.43;69.04
56671;BME280;42545;50.054;8.306;2022-08-19T01:28:42;99504.72;;;20.46;68.89
56671;BME280;42545;50.054;8.306;2022-08-19T01:31:12;99508.13;;;20.51;68.51
56671;BME280;42545;50.054;8.306;2022-08-19T01:33:40;99505.38;;;20.54;68.08
56671;BME280;42545;50.054;8.306;2022-08-19T01:36:09;99503.50;;;20.56;68.06
56671;BME280;42545;50.054;8.306;2022-08-19T01:38:40;99506.09;;;20.59;68.13
56671;BME280;42545;50.054;8.306;2022-08-19T01:41:09;99498.84;;;20.63;68.06
56671;BME280;42545;50.054;8.306;2022-08-19T01:43:36;99501.47;;;20.64;67.74
56671;BME280;42545;50.054;8.306;2022-08-19T01:46:03;99507.66;;;20.66;67.88
56671;BME280;42545;50.054;8.306;2022-08-19T01:48:33;99515.72;;;20.66;67.98
56671;BME280;42545;50.054;8.306;2022-08-19T01:51:00;99524.56;;;20.68;68.01
56671;BME280;42545;50.054;8.306;2022-08-19T01:53:27;99529.88;;;20.70;68.08
56671;BME280;42545;50.054;8.306;2022-08-19T01:55:53;99532.63;;;20.68;68.00
56671;BME280;42545;50.054;8.306;2022-08-19T01:58:26;99528.22;;;20.66;68.04
56671;BME280;42545;50.054;8.306;2022-08-19T02:00:56;99512.19;;;20.64;68.11
56671;BME280;42545;50.054;8.306;2022-08-19T02:03:23;99517.53;;;20.64;68.20
56671;BME280;42545;50.054;8.306;2022-08-19T02:05:54;99514.00;;;20.64;68.13
56671;BME280;42545;50.054;8.306;2022-08-19T02:08:21;99520.34;;;20.61;68.17
56671;BME280;42545;50.054;8.306;2022-08-19T02:10:48;99523.19;;;20.55;68.32
56671;BME280;42545;50.054;8.306;2022-08-19T02:13:17;99528.63;;;20.53;68.39
56671;BME280;42545;50.054;8.306;2022-08-19T02:15:45;99535.81;;;20.51;68.42
56671;BME280;42545;50.054;8.306;2022-08-19T02:18:12;99537.69;;;20.48;68.74
56671;BME280;42545;50.054;8.306;2022-08-19T02:20:40;99534.16;;;20.47;68.94
56671;BME280;42545;50.054;8.306;2022-08-19T02:23:09;99532.41;;;20.46;69.00
56671;BME280;42545;50.054;8.306;2022-08-19T02:25:36;99536.06;;;20.44;69.06
56671;BME280;42545;50.054;8.306;2022-08-19T02:28:04;99533.47;;;20.41;69.32
56671;BME280;42545;50.054;8.306;2022-08-19T02:30:31;99540.69;;;20.39;69.37
56671;BME280;42545;50.054;8.306;2022-08-19T02:32:59;99531.94;;;20.33;69.61
56671;BME280;42545;50.054;8.306;2022-08-19T02:35:26;99543.66;;;20.29;69.38
56671;BME280;42545;50.054;8.306;2022-08-19T02:37:53;99536.66;;;20.25;69.56
56671;BME280;42545;50.054;8.306;2022-08-19T02:40:37;99538.63;;;20.19;69.62
56671;BME280;42545;50.054;8.306;2022-08-19T02:43:07;99534.34;;;20.13;70.04
56671;BME280;42545;50.054;8.306;2022-08-19T02:45:35;99537.16;;;20.10;70.18
56671;BME280;42545;50.054;8.306;2022-08-19T02:48:05;99534.59;;;20.05;70.38
56671;BME280;42545;50.054;8.306;2022-08-19T02:50:37;99533.03;;;19.98;70.77
56671;BME280;42545;50.054;8.306;2022-08-19T02:53:04;99535.78;;;19.95;70.95
56671;BME280;42545;50.054;8.306;2022-08-19T02:55:32;99540.47;;;19.88;71.07
56671;BME280;42545;50.054;8.306;2022-08-19T02:57:59;99530.72;;;19.86;71.22
56671;BME280;42545;50.054;8.306;2022-08-19T03:00:26;99545.13;;;19.82;71.47
56671;BME280;42545;50.054;8.306;2022-08-19T03:02:53;99550.63;;;19.77;71.54
56671;BME280;42545;50.054;8.306;2022-08-19T03:05:22;99546.25;;;19.73;71.96
56671;BME280;42545;50.054;8.306;2022-08-19T03:07:49;99545.41;;;19.71;71.90
56671;BME280;42545;50.054;8.306;2022-08-19T03:10:16;99541.06;;;19.67;72.14
56671;BME280;42545;50.054;8.306;2022-08-19T03:12:43;99542.09;;;19.63;72.23
56671;BME280;42545;50.054;8.306;2022-08-19T03:15:11;99542.16;;;19.59;72.41
56671;BME280;42545;50.054;8.306;2022-08-19T03:17:38;99544.06;;;19.56;72.63
56671;BME280;42545;50.054;8.306;2022-08-19T03:20:05;99546.75;;;19.54;72.71
56671;BME280;42545;50.054;8.306;2022-08-19T03:22:34;99545.97;;;19.51;72.87
56671;BME280;42545;50.054;8.306;2022-08-19T03:25:01;99536.31;;;19.45;72.87
56671;BME280;42545;50.054;8.306;2022-08-19T03:27:28;99539.88;;;19.46;73.15
56671;BME280;42545;50.054;8.306;2022-08-19T03:29:55;99539.97;;;19.43;73.20
56671;BME280;42545;50.054;8.306;2022-08-19T03:32:23;99542.78;;;19.38;73.39
56671;BME280;42545;50.054;8.306;2022-08-19T03:34:50;99542.88;;;19.35;73.65
56671;BME280;42545;50.054;8.306;2022-08-19T03:37:18;99542.88;;;19.35;73.73
56671;BME280;42545;50.054;8.306;2022-08-19T03:39:46;99539.34;;;19.33;73.88
56671;BME280;42545;50.054;8.306;2022-08-19T03:42:13;99539.41;;;19.31;74.00
56671;BME280;42545;50.054;8.306;2022-08-19T03:44:42;99551.91;;;19.29;74.10
56671;BME280;42545;50.054;8.306;2022-08-19T03:47:10;99554.66;;;19.28;74.30
56671;BME280;42545;50.054;8.306;2022-08-19T03:49:43;99552.06;;;19.25;74.52
56671;BME280;42545;50.054;8.306;2022-08-19T03:52:10;99550.28;;;19.24;74.47
56671;BME280;42545;50.054;8.306;2022-08-19T03:54:38;99555.72;;;19.22;74.70
56671;BME280;42545;50.054;8.306;2022-08-19T03:57:06;99554.00;;;19.18;74.76
56671;BME280;42545;50.054;8.306;2022-08-19T03:59:36;99563.03;;;19.14;74.98
56671;BME280;42545;50.054;8.306;2022-08-19T04:02:07;99560.44;;;19.11;75.17
56671;BME280;42545;50.054;8.306;2022-08-19T04:04:35;99556.97;;;19.07;75.42
56671;BME280;42545;50.054;8.306;2022-08-19T04:07:04;99561.59;;;19.02;75.55
56671;BME280;42545;50.054;8.306;2022-08-19T04:09:33;99562.53;;;18.99;75.76
56671;BME280;42545;50.054;8.306;2022-08-19T04:12:02;99559.00;;;18.97;75.95
56671;BME280;42545;50.054;8.306;2022-08-19T04:14:32;99568.00;;;18.95;76.06
56671;BME280;42545;50.054;8.306;2022-08-19T04:17:01;99567.22;;;18.91;76.10
56671;BME280;42545;50.054;8.306;2022-08-19T04:19:31;99577.06;;;18.89;76.38
56671;BME280;42545;50.054;8.306;2022-08-19T04:21:58;99573.53;;;18.87;76.45
56671;BME280;42545;50.054;8.306;2022-08-19T04:24:25;99572.72;;;18.83;76.67
56671;BME280;42545;50.054;8.306;2022-08-19T04:26:52;99573.66;;;18.82;76.68
56671;BME280;42545;50.054;8.306;2022-08-19T04:29:22;99575.47;;;18.80;76.77
56671;BME280;42545;50.054;8.306;2022-08-19T04:31:52;99577.38;;;18.75;76.98
56671;BME280;42545;50.054;8.306;2022-08-19T04:34:21;99570.25;;;18.74;76.96
56671;BME280;42545;50.054;8.306;2022-08-19T04:36:50;99557.88;;;18.70;77.16
56671;BME280;42545;50.054;8.306;2022-08-19T04:39:19;99565.94;;;18.69;77.34
56671;BME280;42545;50.054;8.306;2022-08-19T04:41:47;99566.91;;;18.66;77.60
56671;BME280;42545;50.054;8.306;2022-08-19T04:44:35;99572.28;;;18.64;77.79
56671;BME280;42545;50.054;8.306;2022-08-19T04:47:04;99566.97;;;18.63;77.98
56671;BME280;42545;50.054;8.306;2022-08-19T04:49:31;99569.66;;;18.61;78.05
56671;BME280;42545;50.054;8.306;2022-08-19T04:51:59;99566.16;;;18.59;78.01
56671;BME280;42545;50.054;8.306;2022-08-19T04:54:26;99571.44;;;18.62;78.30
56671;BME280;42545;50.054;8.306;2022-08-19T04:56:53;99576.66;;;18.67;78.30
56671;BME280;42545;50.054;8.306;2022-08-19T04:59:20;99576.59;;;18.70;78.34
56671;BME280;42545;50.054;8.306;2022-08-19T05:01:47;99583.63;;;18.74;78.35
56671;BME280;42545;50.054;8.306;2022-08-19T05:04:18;99586.19;;;18.79;78.01
56671;BME280;42545;50.054;8.306;2022-08-19T05:06:46;99594.09;;;18.83;78.06
56671;BME280;42545;50.054;8.306;2022-08-19T05:09:15;99603.84;;;18.88;77.83
56671;BME280;42545;50.054;8.306;2022-08-19T05:11:43;99600.19;;;18.90;77.50
56671;BME280;42545;50.054;8.306;2022-08-19T05:14:10;99604.63;;;18.91;77.65
56671;BME280;42545;50.054;8.306;2022-08-19T05:16:38;99602.88;;;18.90;77.81
56671;BME280;42545;50.054;8.306;2022-08-19T05:19:05;99598.34;;;18.92;77.59
56671;BME280;42545;50.054;8.306;2022-08-19T05:21:51;99598.34;;;18.92;77.61
56671;BME280;42545;50.054;8.306;2022-08-19T05:24:36;99604.47;;;18.97;77.94
56671;BME280;42545;50.054;8.306;2022-08-19T05:27:05;99612.38;;;19.02;77.80
56671;BME280;42545;50.054;8.306;2022-08-19T05:29:32;99599.88;;;19.02;77.13
56671;BME280;42545;50.054;8.306;2022-08-19T05:32:04;99595.41;;;19.03;77.24
56671;BME280;42545;50.054;8.306;2022-08-19T05:34:33;99587.41;;;19.01;77.33
56671;BME280;42545;50.054;8.306;2022-08-19T05:37:02;99599.88;;;19.02;77.67
56671;BME280;42545;50.054;8.306;2022-08-19T05:39:32;99596.28;;;19.04;77.94
56671;BME280;42545;50.054;8.306;2022-08-19T05:42:03;99591.78;;;19.06;78.05
56671;BME280;42545;50.054;8.306;2022-08-19T05:44:34;99590.78;;;19.10;78.33
56671;BME280;42545;50.054;8.306;2022-08-19T05:47:03;99596.00;;;19.14;78.37
56671;BME280;42545;50.054;8.306;2022-08-19T05:49:33;99599.44;;;19.19;78.16
56671;BME280;42545;50.054;8.306;2022-08-19T05:52:03;99603.72;;;19.27;78.32
56671;BME280;42545;50.054;8.306;2022-08-19T05:54:30;99595.50;;;19.33;77.89
56671;BME280;42545;50.054;8.306;2022-08-19T05:56:58;99591.81;;;19.38;77.84
56671;BME280;42545;50.054;8.306;2022-08-19T05:59:27;99598.66;;;19.49;77.81
56671;BME280;42545;50.054;8.306;2022-08-19T06:01:53;99596.56;;;19.60;77.98
56671;BME280;42545;50.054;8.306;2022-08-19T06:04:22;99609.59;;;19.72;77.31
56671;BME280;42545;50.054;8.306;2022-08-19T06:06:52;99618.28;;;19.82;76.88
56671;BME280;42545;50.054;8.306;2022-08-19T06:09:21;99621.53;;;19.93;76.62
56671;BME280;42545;50.054;8.306;2022-08-19T06:11:50;99622.09;;;20.05;75.83
56671;BME280;42545;50.054;8.306;2022-08-19T06:14:20;99619.09;;;20.15;75.27
56671;BME280;42545;50.054;8.306;2022-08-19T06:16:48;99619.66;;;20.27;74.96
56671;BME280;42545;50.054;8.306;2022-08-19T06:19:20;99625.59;;;20.36;74.79
56671;BME280;42545;50.054;8.306;2022-08-19T06:21:50;99629.81;;;20.45;74.19
56671;BME280;42545;50.054;8.306;2022-08-19T06:24:19;99641.22;;;20.52;73.93
56671;BME280;42545;50.054;8.306;2022-08-19T06:26:48;99646.34;;;20.61;73.46
56671;BME280;42545;50.054;8.306;2022-08-19T06:29:17;99654.06;;;20.70;73.78
56671;BME280;42545;50.054;8.306;2022-08-19T06:31:47;99649.47;;;20.76;73.55
56671;BME280;42545;50.054;8.306;2022-08-19T06:34:15;99650.13;;;20.82;72.96
56671;BME280;42545;50.054;8.306;2022-08-19T06:36:45;99654.41;;;20.88;72.32
56671;BME280;42545;50.054;8.306;2022-08-19T06:39:14;99662.28;;;20.94;71.80
56671;BME280;42545;50.054;8.306;2022-08-19T06:41:43;99659.38;;;21.00;71.70
56671;BME280;42545;50.054;8.306;2022-08-19T06:44:12;99663.66;;;21.06;71.40
56671;BME280;42545;50.054;8.306;2022-08-19T06:46:41;99666.16;;;21.12;70.90
56671;BME280;42545;50.054;8.306;2022-08-19T06:49:08;99662.47;;;21.15;71.33
56671;BME280;42545;50.054;8.306;2022-08-19T06:51:40;99657.88;;;21.18;71.24
56671;BME280;42545;50.054;8.306;2022-08-19T06:54:09;99659.56;;;21.21;70.21
56671;BME280;42545;50.054;8.306;2022-08-19T06:56:36;99659.56;;;21.21;70.22
56671;BME280;42545;50.054;8.306;2022-08-19T06:59:07;99669.34;;;21.23;70.29
56671;BME280;42545;50.054;8.306;2022-08-19T07:01:37;99670.00;;;21.30;70.17
56671;BME280;42545;50.054;8.306;2022-08-19T07:04:05;99675.22;;;21.35;69.75
56671;BME280;42545;50.054;8.306;2022-08-19T07:06:34;99675.81;;;21.43;69.52
56671;BME280;42545;50.054;8.306;2022-08-19T07:09:02;99670.28;;;21.49;69.15
56671;BME280;42545;50.054;8.306;2022-08-19T07:11:29;99675.34;;;21.58;69.38
56671;BME280;42545;50.054;8.306;2022-08-19T07:13:56;99675.03;;;21.67;68.87
56671;BME280;42545;50.054;8.306;2022-08-19T07:16:23;99672.81;;;21.79;68.72
56671;BME280;42545;50.054;8.306;2022-08-19T07:18:51;99674.25;;;21.89;68.24
56671;BME280;42545;50.054;8.306;2022-08-19T07:21:19;99680.25;;;21.96;67.97
56671;BME280;42545;50.054;8.306;2022-08-19T07:23:47;99680.97;;;22.01;67.16
56671;BME280;42545;50.054;8.306;2022-08-19T07:26:16;99684.28;;;22.09;66.92
56671;BME280;42545;50.054;8.306;2022-08-19T07:28:45;99684.13;;;22.12;66.08
56671;BME280;42545;50.054;8.306;2022-08-19T07:31:14;99678.50;;;22.20;66.06
56671;BME280;42545;50.054;8.306;2022-08-19T07:33:43;99669.06;;;22.33;65.64
56671;BME280;42545;50.054;8.306;2022-08-19T07:36:14;99669.81;;;22.37;64.83
56671;BME280;42545;50.054;8.306;2022-08-19T07:38:45;99662.31;;;22.45;64.99
56671;BME280;42545;50.054;8.306;2022-08-19T07:41:17;99663.03;;;22.50;64.66
56671;BME280;42545;50.054;8.306;2022-08-19T07:43:44;99668.09;;;22.58;64.32
56671;BME280;42545;50.054;8.306;2022-08-19T07:46:12;99668.25;;;22.55;63.52
56671;BME280;42545;50.054;8.306;2022-08-19T07:48:41;99673.47;;;22.58;63.39
56671;BME280;42545;50.054;8.306;2022-08-19T07:51:12;99666.00;;;22.66;63.69
56671;BME280;42545;50.054;8.306;2022-08-19T07:53:39;99659.44;;;22.73;63.33
56671;BME280;42545;50.054;8.306;2022-08-19T07:56:06;99665.56;;;22.77;62.88
56671;BME280;42545;50.054;8.306;2022-08-19T07:58:38;99668.16;;;22.80;63.63
56671;BME280;42545;50.054;8.306;2022-08-19T08:01:06;99675.91;;;22.88;62.88
56671;BME280;42545;50.054;8.306;2022-08-19T08:03:33;99671.13;;;22.94;63.26
56671;BME280;42545;50.054;8.306;2022-08-19T08:06:19;99672.72;;;23.00;62.86
56671;BME280;42545;50.054;8.306;2022-08-19T08:09:04;99662.03;;;22.98;62.66
56671;BME280;42545;50.054;8.306;2022-08-19T08:11:38;99673.59;;;23.00;62.55
56671;BME280;42545;50.054;8.306;2022-08-19T08:14:07;99679.78;;;23.02;62.89
56671;BME280;42545;50.054;8.306;2022-08-19T08:16:35;99688.03;;;22.98;62.35
56671;BME280;42545;50.054;8.306;2022-08-19T08:19:03;99688.19;;;22.95;61.69
56671;BME280;42545;50.054;8.306;2022-08-19T08:21:33;99685.22;;;23.01;62.47
56671;BME280;42545;50.054;8.306;2022-08-19T08:24:00;99690.09;;;23.15;62.15
56671;BME280;42545;50.054;8.306;2022-08-19T08:26:27;99691.44;;;23.25;61.09
56671;BME280;42545;50.054;8.306;2022-08-19T08:28:54;99688.28;;;23.36;60.59
56671;BME280;42545;50.054;8.306;2022-08-19T08:31:21;99696.03;;;23.44;60.74
56671;BME280;42545;50.054;8.306;2022-08-19T08:33:49;99703.88;;;23.50;60.06
56671;BME280;42545;50.054;8.306;2022-08-19T08:36:16;99693.09;;;23.50;59.68
56671;BME280;42545;50.054;8.306;2022-08-19T08:38:45;99699.34;;;23.50;59.69
56671;BME280;42545;50.054;8.306;2022-08-19T08:41:18;99700.78;;;23.59;59.63
56671;BME280;42545;50.054;8.306;2022-08-19T08:43:51;99711.28;;;23.65;59.19
56671;BME280;42545;50.054;8.306;2022-08-19T08:46:22;99702.28;;;23.66;58.35
56671;BME280;42545;50.054;8.306;2022-08-19T08:48:54;99701.81;;;23.77;58.54
56671;BME280;42545;50.054;8.306;2022-08-19T08:51:26;99703.34;;;23.84;58.26
56671;BME280;42545;50.054;8.306;2022-08-19T08:53:57;99707.91;;;23.82;57.94
56671;BME280;42545;50.054;8.306;2022-08-19T08:56:23;99725.06;;;23.79;58.29
56671;BME280;42545;50.054;8.306;2022-08-19T08:58:54;99719.78;;;23.76;58.44
56671;BME280;42545;50.054;8.306;2022-08-19T09:01:25;99717.47;;;23.67;57.98
56671;BME280;42545;50.054;8.306;2022-08-19T09:03:58;99716.00;;;23.60;58.49
56671;BME280;42545;50.054;8.306;2022-08-19T09:06:31;99715.59;;;23.69;59.20
56671;BME280;42545;50.054;8.306;2022-08-19T09:09:03;99714.22;;;23.81;58.63
56671;BME280;42545;50.054;8.306;2022-08-19T09:11:44;99716.41;;;23.93;57.29
56671;BME280;42545;50.054;8.306;2022-08-19T09:14:20;99724.47;;;24.14;57.08
56671;BME280;42545;50.054;8.306;2022-08-19T09:16:50;99725.72;;;24.26;56.70
56671;BME280;42545;50.054;8.306;2022-08-19T09:19:17;99720.78;;;24.35;55.75
56671;BME280;42545;50.054;8.306;2022-08-19T09:21:44;99718.13;;;24.15;55.58
56671;BME280;42545;50.054;8.306;2022-08-19T09:24:13;99720.97;;;24.12;57.10
56671;BME280;42545;50.054;8.306;2022-08-19T09:26:40;99720.63;;;24.20;55.43
56671;BME280;42545;50.054;8.306;2022-08-19T09:29:09;99708.31;;;24.33;55.24
56671;BME280;42545;50.054;8.306;2022-08-19T09:31:36;99707.81;;;24.44;55.07
56671;BME280;42545;50.054;8.306;2022-08-19T09:34:03;99697.56;;;24.52;54.92
56671;BME280;42545;50.054;8.306;2022-08-19T09:36:31;99688.47;;;24.54;54.29
56671;BME280;42545;50.054;8.306;2022-08-19T09:38:59;99691.09;;;24.56;54.31
56671;BME280;42545;50.054;8.306;2022-08-19T09:41:28;99687.03;;;24.46;53.73
56671;BME280;42545;50.054;8.306;2022-08-19T09:43:55;99686.66;;;24.55;53.65
56671;BME280;42545;50.054;8.306;2022-08-19T09:46:23;99687.97;;;24.65;53.20
56671;BME280;42545;50.054;8.306;2022-08-19T09:48:52;99692.84;;;24.76;53.71
56671;BME280;42545;50.054;8.306;2022-08-19T09:51:22;99677.25;;;24.83;52.95
56671;BME280;42545;50.054;8.306;2022-08-19T09:53:50;99678.84;;;24.87;52.32
56671;BME280;42545;50.054;8.306;2022-08-19T09:56:19;99683.13;;;24.91;52.47
56671;BME280;42545;50.054;8.306;2022-08-19T09:58:48;99682.94;;;24.96;52.47
56671;BME280;42545;50.054;8.306;2022-08-19T10:01:17;99679.50;;;24.92;52.94
56671;BME280;42545;50.054;8.306;2022-08-19T10:03:48;99685.84;;;24.91;53.26
56671;BME280;42545;50.054;8.306;2022-08-19T10:06:16;99678.06;;;25.02;52.92
56671;BME280;42545;50.054;8.306;2022-08-19T10:08:44;99675.50;;;25.18;51.88
56671;BME280;42545;50.054;8.306;2022-08-19T10:11:11;99668.19;;;25.20;51.73
56671;BME280;42545;50.054;8.306;2022-08-19T10:13:39;99672.09;;;25.14;50.29
56671;BME280;42545;50.054;8.306;2022-08-19T10:16:11;99669.00;;;25.22;50.44
56671;BME280;42545;50.054;8.306;2022-08-19T10:18:38;99661.56;;;25.27;50.95
56671;BME280;42545;50.054;8.306;2022-08-19T10:21:09;99663.66;;;25.40;50.66
56671;BME280;42545;50.054;8.306;2022-08-19T10:23:37;99664.13;;;25.48;47.81
56671;BME280;42545;50.054;8.306;2022-08-19T10:26:06;99668.31;;;25.54;47.59
56671;BME280;42545;50.054;8.306;2022-08-19T10:28:34;99662.63;;;25.60;45.96
56671;BME280;42545;50.054;8.306;2022-08-19T10:31:09;99656.09;;;25.64;46.45
56671;BME280;42545;50.054;8.306;2022-08-19T10:33:37;99660.47;;;25.66;46.31
56671;BME280;42545;50.054;8.306;2022-08-19T10:36:14;99660.47;;;25.66;45.37
56671;BME280;42545;50.054;8.306;2022-08-19T10:38:43;99665.31;;;25.77;45.61
56671;BME280;42545;50.054;8.306;2022-08-19T10:41:13;99658.63;;;25.84;45.78
56671;BME280;42545;50.054;8.306;2022-08-19T10:43:40;99652.19;;;25.87;45.78
56671;BME280;42545;50.054;8.306;2022-08-19T10:46:11;99662.28;;;25.83;45.81
56671;BME280;42545;50.054;8.306;2022-08-19T10:48:38;99656.31;;;25.77;44.74
56671;BME280;42545;50.054;8.306;2022-08-19T10:51:06;99661.00;;;25.90;44.91
56671;BME280;42545;50.054;8.306;2022-08-19T10:53:56;99656.88;;;26.01;44.72
56671;BME280;42545;50.054;8.306;2022-08-19T10:56:28;99664.75;;;26.05;45.54
56671;BME280;42545;50.054;8.306;2022-08-19T10:59:20;99655.97;;;26.18;44.81
56671;BME280;42545;50.054;8.306;2022-08-19T11:01:50;99651.78;;;26.28;44.24
56671;BME280;42545;50.054;8.306;2022-08-19T11:04:18;99661.41;;;26.34;44.43
56671;BME280;42545;50.054;8.306;2022-08-19T11:06:47;99652.06;;;26.23;43.68
56671;BME280;42545;50.054;8.306;2022-08-19T11:09:15;99641.66;;;26.16;42.50
56671;BME280;42545;50.054;8.306;2022-08-19T11:11:44;99637.66;;;26.23;43.71
56671;BME280;42545;50.054;8.306;2022-08-19T11:14:16;99646.94;;;26.35;43.23
56671;BME280;42545;50.054;8.306;2022-08-19T11:16:46;99643.78;;;26.42;43.72
56671;BME280;42545;50.054;8.306;2022-08-19T11:19:16;99640.16;;;26.43;44.30
56671;BME280;42545;50.054;8.306;2022-08-19T11:21:46;99630.09;;;26.45;44.35
56671;BME280;42545;50.054;8.306;2022-08-19T11:24:16;99629.25;;;26.45;44.42
56671;BME280;42545;50.054;8.306;2022-08-19T11:26:45;99624.41;;;26.50;44.21
56671;BME280;42545;50.054;8.306;2022-08-19T11:29:13;99625.03;;;26.55;43.31
56671;BME280;42545;50.054;8.306;2022-08-19T11:31:45;99623.69;;;26.64;43.46
56671;BME280;42545;50.054;8.306;2022-08-19T11:34:17;99625.69;;;26.76;42.07
56671;BME280;42545;50.054;8.306;2022-08-19T11:36:56;99623.75;;;26.94;41.38
56671;BME280;42545;50.054;8.306;2022-08-19T11:39:26;99624.22;;;27.17;41.05
56671;BME280;42545;50.054;8.306;2022-08-19T11:41:53;99614.78;;;27.24;39.81
56671;BME280;42545;50.054;8.306;2022-08-19T11:44:23;99601.88;;;27.29;40.43
56671;BME280;42545;50.054;8.306;2022-08-19T11:46:52;99604.28;;;27.34;39.36
56671;BME280;42545;50.054;8.306;2022-08-19T11:49:23;99606.66;;;27.40;38.58
56671;BME280;42545;50.054;8.306;2022-08-19T11:51:49;99596.19;;;27.48;38.33
56671;BME280;42545;50.054;8.306;2022-08-19T11:54:17;99585.34;;;27.48;38.15
56671;BME280;42545;50.054;8.306;2022-08-19T11:56:45;99585.88;;;27.55;38.18
56671;BME280;42545;50.054;8.306;2022-08-19T11:59:25;99577.03;;;27.51;39.56
56671;BME280;42545;50.054;8.306;2022-08-19T12:01:52;99579.28;;;27.59;38.66
56671;BME280;42545;50.054;8.306;2022-08-19T12:04:35;99575.63;;;27.60;37.88
56671;BME280;42545;50.054;8.306;2022-08-19T12:07:02;99573.56;;;27.64;38.18
56671;BME280;42545;50.054;8.306;2022-08-19T12:09:30;99573.19;;;27.70;38.72
56671;BME280;42545;50.054;8.306;2022-08-19T12:11:59;99586.84;;;27.83;38.50
56671;BME280;42545;50.054;8.306;2022-08-19T12:14:28;99579.22;;;27.89;38.41
56671;BME280;42545;50.054;8.306;2022-08-19T12:16:57;99583.00;;;28.01;38.10
56671;BME280;42545;50.054;8.306;2022-08-19T12:19:27;99578.84;;;28.10;37.81
56671;BME280;42545;50.054;8.306;2022-08-19T12:21:58;99578.00;;;28.09;37.06
56671;BME280;42545;50.054;8.306;2022-08-19T12:24:30;99586.13;;;28.09;36.43
56671;BME280;42545;50.054;8.306;2022-08-19T12:26:57;99593.84;;;28.15;35.66
56671;BME280;42545;50.054;8.306;2022-08-19T12:29:24;99596.56;;;28.15;36.02
56671;BME280;42545;50.054;8.306;2022-08-19T12:31:56;99591.72;;;28.21;36.35
56671;BME280;42545;50.054;8.306;2022-08-19T12:34:27;99590.66;;;28.23;37.09
56671;BME280;42545;50.054;8.306;2022-08-19T12:37:03;99588.94;;;27.93;36.29
56671;BME280;42545;50.054;8.306;2022-08-19T12:39:29;99587.00;;;27.95;36.38
56671;BME280;42545;50.054;8.306;2022-08-19T12:42:00;99589.78;;;27.94;36.51
56671;BME280;42545;50.054;8.306;2022-08-19T12:44:27;99585.63;;;28.03;36.78
56671;BME280;42545;50.054;8.306;2022-08-19T12:46:54;99591.63;;;27.93;37.37
56671;BME280;42545;50.054;8.306;2022-08-19T12:49:21;99580.03;;;27.91;37.58
56671;BME280;42545;50.054;8.306;2022-08-19T12:51:48;99573.97;;;27.86;37.03
56671;BME280;42545;50.054;8.306;2022-08-19T12:54:17;99569.72;;;27.82;37.11
56671;BME280;42545;50.054;8.306;2022-08-19T12:56:45;99567.22;;;27.93;36.82
56671;BME280;42545;50.054;8.306;2022-08-19T12:59:13;99562.84;;;28.05;36.92
56671;BME280;42545;50.054;8.306;2022-08-19T13:01:43;99563.63;;;28.07;36.91
56671;BME280;42545;50.054;8.306;2022-08-19T13:04:10;99558.41;;;28.18;36.35
56671;BME280;42545;50.054;8.306;2022-08-19T13:06:37;99576.56;;;28.31;36.21
56671;BME280;42545;50.054;8.306;2022-08-19T13:09:04;99570.88;;;28.35;35.68
56671;BME280;42545;50.054;8.306;2022-08-19T13:11:34;99574.44;;;28.36;36.52